Tuesday, February 20, 2018, 10:31 AM EST
Back to Local

KMDT, Harrisburg International Airport

Location: Middletown, PA, United States Lat: 40.2
Local Time: 10:31 AM EST (15:31 GMT) Lon: -76.767
Time Zone: US/Eastern Elev: 308 ft

Show me the last for .
Show Decoded

2018-02-20 10:12 METAR KMDT 201512Z 09003KT 4SM BR OVC004 10/09 A3034 RMK AO2 T01000089 =
2018-02-20 10:05 METAR KMDT 201505Z 12003KT 2 1/2SM BR OVC003 10/09 A3034 RMK AO2 T01000089 =
2018-02-20 09:54 METAR KMDT 201454Z 00000KT 1/2SM R13/P6000FT FG OVC003 08/07 A3034 RMK AO2 =
2018-02-20 09:43 METAR KMDT 201443Z 09004KT 1 3/4SM BR OVC003 09/08 A3034 RMK AO2 T00940083 =
2018-02-20 09:19 METAR KMDT 201419Z 00000KT 1/4SM R13/1600V3500FT FG VV003 07/07 A3035 RMK AO2
                 TWR VIS 1/4 T00720067 =
2018-02-20 09:07 METAR KMDT 201407Z 00000KT 1/4SM R13/1800V3000FT FG VV002 06/06 A3035 RMK AO2
                 TWR VIS 1/4 T00610056 =
2018-02-20 08:56 METAR KMDT 201356Z 00000KT M1/4SM R13/1200V2200FT FG VV003 06/06 A3035 RMK AO2
                 TWR VIS 1/4 SLP279 T00610056 =
2018-02-20 08:42 METAR KMDT 201342Z 00000KT M1/4SM R13/1000V2000FT FG VV003 06/06 A3034 RMK AO2
                 TWR VIS 1/4 T00610056 =
2018-02-20 08:15 METAR KMDT 201315Z 00000KT 1/4SM R13/1200V2800FT FG VV002 06/06 A3034 RMK AO2
                 TWR VIS 1/4 T00610056 =
2018-02-20 07:56 METAR KMDT 201256Z 00000KT M1/4SM R13/1600V2000FT FG VV002 05/04 A3034 RMK AO2
                 TWR VIS 1/4 SLP276 T00500044 =
2018-02-20 07:53 METAR KMDT 201253Z 00000KT M1/4SM R13/1400V2000FT FG VV002 06/05 A3034 RMK AO2
                 TWR VIS 1/4 =
2018-02-20 06:56 METAR KMDT 201156Z 00000KT M1/4SM R13/1800V5000FT FG VV002 05/04 A3032 RMK AO2
                 TWR VIS 1/4 SLP270 70009 T00500044 10067 20050 51011 =
2018-02-20 06:34 METAR KMDT 201134Z 00000KT 1/4SM R13/1800V2800FT FG VV002 06/05 A3032 RMK AO2
                 TWR VIS 1/4 T00560050 $ =
2018-02-20 05:56 METAR KMDT 201056Z 00000KT 1/4SM R13/1600V2200FT FG VV002 06/04 A3031 RMK AO2
                 TWR VIS 1/4 SLP266 T00560044 $ =
2018-02-20 05:54 METAR KMDT 201054Z 00000KT 1/4SM R13/1600V2800FT FG VV002 05/04 A3030 RMK AO2
                 TWR VIS 1/4 $ =
2018-02-20 05:22 METAR KMDT 201022Z 00000KT 1/4SM R13/2200V3500FT FG VV003 06/05 A3030 RMK AO2
                 TWR VIS 1 T00560050 $ =
2018-02-20 04:56 METAR KMDT 200956Z 00000KT 1/4SM R13/2400V3500FT FG VV002 06/05 A3029 RMK AO2
                 TWR VIS 1 SLP259 T00560050 $ =
2018-02-20 04:53 METAR KMDT 200953Z 00000KT 1/4SM R13/2000V3500FT FG VV002 06/05 A3029 RMK AO2
                 TWR VIS 1 $ =
2018-02-20 04:30 METAR KMDT 200930Z 00000KT 1/2SM R13/2800V4500FT FG VV003 06/05 A3029 RMK AO2
                 TWR VIS 1 T00560050 $ =
2018-02-20 04:19 METAR KMDT 200919Z 00000KT 1/2SM R13/3500VP6000FT FG OVC002 06/05 A3028 RMK AO2
                 TWR VIS 1 T00560050 $ =
2018-02-20 03:56 METAR KMDT 200856Z 00000KT 1SM R13/P6000FT BR OVC002 06/05 A3028 RMK AO2 SLP256
                 T00610050 57005 $ =
2018-02-20 03:04 METAR KMDT 200804Z 00000KT 3/4SM R13/P6000FT BR OVC002 06/05 A3028 RMK AO2 TWR
                 VIS 1 T00610050 $ =
2018-02-20 02:56 METAR KMDT 200756Z 00000KT 1/2SM R13/5000VP6000FT FG OVC003 06/05 A3029 RMK AO2
                 TWR VIS 1 SLP259 T00560050 $ =
2018-02-20 02:52 METAR KMDT 200752Z 00000KT 1/2SM R13/2800VP6000FT FG OVC003 06/05 A3029 RMK AO2
                 TWR VIS 1 $ =
2018-02-20 01:56 METAR KMDT 200656Z 00000KT 1SM R13/4500VP6000FT BR OVC004 06/05 A3029 RMK AO2
                 SLP262 T00610050 $ =
2018-02-20 00:56 METAR KMDT 200556Z 00000KT 1SM R13/P6000FT BR OVC004 06/05 A3030 RMK AO2 TWR VIS
                 2 SLP264 60000 T00560050 10067 20050 56001 $ =
2018-02-20 00:44 METAR KMDT 200544Z 00000KT 1SM R13/P6000FT BR OVC004 06/06 A3030 RMK AO2 TWR VIS
                 2 T00610056 $ =
2018-02-19 23:56 METAR KMDT 200456Z 00000KT 1SM R13/P6000FT BR OVC005 07/06 A3030 RMK AO2 TWR VIS
                 2 SLP263 T00670056 400721017 $ =
2018-02-19 23:51 METAR KMDT 200451Z 00000KT 1SM R13/P6000FT BR OVC005 06/06 A3030 RMK AO2 TWR VIS
                 2 $ =
2018-02-19 22:56 METAR KMDT 200356Z 08004KT 2SM BR OVC006 07/06 A3031 RMK AO2 SLP266 T00670056 $
                 =
2018-02-19 21:56 METAR KMDT 200256Z 10003KT 1SM R13/P6000FT BR OVC003 06/05 A3031 RMK AO2 TWR VIS
                 2 SLP266 60000 T00560050 56005 $ =
2018-02-19 21:50 METAR KMDT 200250Z 12003KT 1SM R13/P6000FT BR OVC003 06/05 A3031 RMK AO2 TWR VIS
                 2 $ =
2018-02-19 20:56 METAR KMDT 200156Z 09003KT 2SM BR OVC003 06/05 A3031 RMK AO2 SLP268 T00560050 $
                 =
2018-02-19 19:56 METAR KMDT 200056Z 00000KT 2SM BR OVC004 05/04 A3032 RMK AO2 RAE53 SLP271 P0000
                 T00500044 $ =
2018-02-19 19:03 METAR KMDT 200003Z 13003KT 2 1/2SM -RA OVC004 05/04 A3032 RMK AO2 P0000
                 T00500044 $ =
2018-02-19 18:56 METAR KMDT 192356Z 13003KT 1SM R13/P6000FT -RA OVC005 05/04 A3032 RMK AO2 SFC
                 VIS 2 1/2 SLP271 P0000 60009 T00500039 10061 20050 53002 $ =
2018-02-19 18:06 METAR KMDT 192306Z 13003KT 1SM R13/P6000FT -RA OVC005 06/04 A3032 RMK AO2 SFC
                 VIS 3 P0000 T00560044 $ =
2018-02-19 17:56 METAR KMDT 192256Z 12004KT 3SM -RA OVC004 06/04 A3031 RMK AO2 RAB47 SLP266 P0000
                 T00560044 $ =
2018-02-19 16:56 METAR KMDT 192156Z 11005KT 2SM OVC004 06/05 A3031 RMK AO2 TWR VIS 3 SLP266
                 T00560050 $ =
2018-02-19 16:41 METAR KMDT 192141Z 11007KT 2SM OVC004 06/05 A3030 RMK AO2 TWR VIS 3 T00610050 $
                 =
2018-02-19 15:56 METAR KMDT 192056Z 12006KT 2SM OVC005 06/05 A3032 RMK AO2 TWR VIS 3 RAE52 SLP269
                 P0001 60009 T00610050 58015 $ =
2018-02-19 15:40 METAR KMDT 192040Z 13007KT 2SM -RA OVC008 06/04 A3032 RMK AO2 TWR VIS 3 P0000
                 T00560044 $ =
2018-02-19 14:56 METAR KMDT 191956Z 12005KT 3SM -RA OVC011 06/04 A3034 RMK AO2 SFC VIS 7 RAE37B53
                 SLP277 P0005 T00560044 $ =
2018-02-19 14:09 METAR KMDT 191909Z 11005KT 3SM R13/5000VP6000FT -RA BR OVC013 06/04 A3035 RMK
                 AO2 P0004 T00610039 $ =
2018-02-19 13:56 METAR KMDT 191856Z 14004KT 5SM -RA BKN015 OVC025 06/03 A3036 RMK AO2 RAB26
                 SLP283 P0003 T00610033 $ =
2018-02-19 12:56 METAR KMDT 191756Z 14006KT 10SM OVC020 06/02 A3036 RMK AO2 SLP284 T00610017
                 10072 20033 58027 $ =
2018-02-19 12:36 METAR KMDT 191736Z 14007KT 10SM BKN024 OVC042 07/02 A3037 RMK AO2 T00670022 $ =
2018-02-19 11:56 METAR KMDT 191656Z 15009KT 10SM OVC040 06/01 A3039 RMK AO2 SLP296 T00610011 $ =
2018-02-19 10:56 METAR KMDT 191556Z 13004KT 10SM FEW031 OVC040 05/01 A3044 RMK AO2 SLP311
                 T00500006 $ =

Support USWX by starting your Amazon purchase here.